createdAt,value
2023-02-17T00:01:29.734Z,19.52
2023-02-17T00:03:58.272Z,11.65
2023-02-17T00:06:30.356Z,23.25
2023-02-17T00:08:59.575Z,23.92
2023-02-17T00:11:28.448Z,22.02
2023-02-17T00:13:57.169Z,21.40
2023-02-17T00:16:27.316Z,6.55
2023-02-17T00:18:56.933Z,22.10
2023-02-17T00:21:29.246Z,22.83
2023-02-17T00:23:59.872Z,17.63
2023-02-17T00:26:28.376Z,25.77
2023-02-17T00:28:56.502Z,24.42
2023-02-17T00:31:25.501Z,12.55
2023-02-17T00:33:56.584Z,24.17
2023-02-17T00:36:26.235Z,10.63
2023-02-17T00:38:58.122Z,25.70
2023-02-17T00:41:28.043Z,23.65
2023-02-17T00:43:56.486Z,27.70
2023-02-17T00:46:25.283Z,21.95
2023-02-17T00:48:53.690Z,21.58
2023-02-17T00:51:22.258Z,21.98
2023-02-17T00:53:50.587Z,11.35
2023-02-17T00:56:20.431Z,20.52
2023-02-17T00:58:48.640Z,21.40
2023-02-17T01:01:16.882Z,19.23
2023-02-17T01:03:45.453Z,8.05
2023-02-17T01:06:23.016Z,16.73
2023-02-17T01:08:51.193Z,16.30
2023-02-17T01:11:22.694Z,17.85
2023-02-17T01:13:50.977Z,16.77
2023-02-17T01:16:21.509Z,23.67
2023-02-17T01:18:49.792Z,11.80
2023-02-17T01:21:19.083Z,5.60
2023-02-17T01:23:47.447Z,6.57
2023-02-17T01:26:17.146Z,18.52
2023-02-17T01:28:47.472Z,18.38
2023-02-17T01:31:16.303Z,13.60
2023-02-17T01:33:44.822Z,19.55
2023-02-17T01:36:18.333Z,14.85
2023-02-17T01:38:47.862Z,7.80
2023-02-17T01:41:18.073Z,18.38
2023-02-17T01:44:13.457Z,10.18
2023-02-17T01:46:43.253Z,16.75
2023-02-17T01:49:21.835Z,13.00
2023-02-17T01:51:54.649Z,11.93
2023-02-17T01:54:27.784Z,18.48
2023-02-17T01:56:58.211Z,8.13
2023-02-17T01:59:29.694Z,20.02
2023-02-17T02:02:02.040Z,11.65
2023-02-17T02:04:33.656Z,10.10
2023-02-17T02:07:02.046Z,13.10
2023-02-17T02:09:34.358Z,13.18
2023-02-17T02:12:02.894Z,15.63
2023-02-17T02:14:32.528Z,12.88
2023-02-17T02:17:12.264Z,16.10
2023-02-17T02:20:11.924Z,13.48
2023-02-17T02:23:14.873Z,14.77
2023-02-17T02:26:19.094Z,18.27
2023-02-17T02:29:06.340Z,11.77
2023-02-17T02:31:46.135Z,13.65
2023-02-17T02:34:22.055Z,23.52
2023-02-17T02:36:57.086Z,15.27
2023-02-17T02:39:29.608Z,14.23
2023-02-17T02:42:02.494Z,24.67
2023-02-17T02:44:30.695Z,15.75
2023-02-17T02:47:00.167Z,10.05
2023-02-17T02:49:32.169Z,14.75
2023-02-17T02:52:05.842Z,18.23
2023-02-17T02:54:42.668Z,16.75
2023-02-17T02:57:27.448Z,6.95
2023-02-17T03:00:16.990Z,12.25
2023-02-17T03:02:52.381Z,7.57
2023-02-17T03:05:34.441Z,11.60
2023-02-17T03:08:09.730Z,14.93
2023-02-17T03:10:45.531Z,17.52
2023-02-17T03:13:14.050Z,4.25
2023-02-17T03:15:43.264Z,16.80
2023-02-17T03:18:11.644Z,15.70
2023-02-17T03:20:45.159Z,16.73
2023-02-17T03:23:13.518Z,11.57
2023-02-17T03:25:41.986Z,9.02
2023-02-17T03:28:10.490Z,16.67
2023-02-17T03:30:39.042Z,7.05
2023-02-17T03:33:07.443Z,12.57
2023-02-17T03:35:35.968Z,13.68
2023-02-17T03:38:05.672Z,10.45
2023-02-17T03:40:33.907Z,15.13
2023-02-17T03:43:02.432Z,10.70
2023-02-17T03:45:30.905Z,10.75
2023-02-17T03:47:58.998Z,15.27
2023-02-17T03:50:27.614Z,9.25
2023-02-17T03:52:55.811Z,14.85
2023-02-17T03:55:25.370Z,10.13
2023-02-17T03:57:53.547Z,17.20
2023-02-17T04:00:22.195Z,10.73
2023-02-17T04:02:50.402Z,17.67
2023-02-17T04:05:18.807Z,13.35
2023-02-17T04:07:47.205Z,8.60
2023-02-17T04:10:15.887Z,13.00
2023-02-17T04:12:45.852Z,22.90
2023-02-17T04:15:14.226Z,13.50
2023-02-17T04:17:42.741Z,17.63
2023-02-17T04:20:11.978Z,6.90
2023-02-17T04:22:40.110Z,14.80
2023-02-17T04:25:08.419Z,6.57
2023-02-17T04:27:36.841Z,9.25
2023-02-17T04:30:09.854Z,11.23
2023-02-17T04:32:39.485Z,16.08
2023-02-17T04:35:08.953Z,7.00
2023-02-17T04:37:37.124Z,14.93
2023-02-17T04:40:10.386Z,8.00
2023-02-17T04:42:39.031Z,13.30
2023-02-17T04:45:09.478Z,11.82
2023-02-17T04:47:38.074Z,9.73
2023-02-17T04:50:08.319Z,11.23
2023-02-17T04:52:36.658Z,13.85
2023-02-17T04:55:05.634Z,10.80
2023-02-17T04:57:33.866Z,7.60
2023-02-17T05:00:02.013Z,9.55
2023-02-17T05:02:31.888Z,10.80
2023-02-17T05:05:00.403Z,7.35
2023-02-17T05:07:28.984Z,14.90
2023-02-17T05:09:57.656Z,14.32
2023-02-17T05:12:26.039Z,4.43
2023-02-17T05:14:54.207Z,5.90
2023-02-17T05:17:22.630Z,10.15
2023-02-17T05:19:52.512Z,10.52
2023-02-17T05:22:21.056Z,10.82
2023-02-17T05:24:49.192Z,5.95
2023-02-17T05:27:17.757Z,8.70
2023-02-17T05:29:46.375Z,12.32
2023-02-17T05:32:14.537Z,5.93
2023-02-17T05:34:42.995Z,10.75
2023-02-17T05:37:12.663Z,7.28
2023-02-17T05:39:41.159Z,7.40
2023-02-17T05:42:09.284Z,8.45
2023-02-17T05:44:37.471Z,8.05
2023-02-17T05:47:06.318Z,5.22
2023-02-17T05:49:34.507Z,10.65
2023-02-17T05:52:03.304Z,7.22
2023-02-17T05:54:32.925Z,6.07
2023-02-17T05:57:01.072Z,8.35
2023-02-17T05:59:29.426Z,10.82
2023-02-17T06:01:57.583Z,10.48
2023-02-17T06:04:25.707Z,5.15
2023-02-17T06:06:53.933Z,8.73
2023-02-17T06:09:22.354Z,5.97
2023-02-17T06:11:52.455Z,5.40
2023-02-17T06:14:20.696Z,9.45
2023-02-17T06:16:48.840Z,5.45
2023-02-17T06:19:17.033Z,9.35
2023-02-17T06:21:45.300Z,3.55
2023-02-17T06:24:13.974Z,12.07
2023-02-17T06:26:42.162Z,11.20
2023-02-17T06:29:12.076Z,9.73
2023-02-17T06:31:40.694Z,7.32
2023-02-17T06:34:08.893Z,12.52
2023-02-17T06:36:37.058Z,6.03
2023-02-17T06:39:05.500Z,4.47
2023-02-17T06:41:34.524Z,8.43
2023-02-17T06:44:02.961Z,6.80
2023-02-17T06:46:32.732Z,12.07
2023-02-17T06:49:01.541Z,7.50
2023-02-17T06:51:30.224Z,9.20
2023-02-17T06:53:58.479Z,10.68
2023-02-17T06:56:26.643Z,8.63
2023-02-17T06:58:55.190Z,8.43
2023-02-17T07:01:26.231Z,9.30
2023-02-17T07:03:56.298Z,9.38
2023-02-17T07:06:26.316Z,9.02
2023-02-17T07:08:55.635Z,13.13
2023-02-17T07:11:23.970Z,5.72
2023-02-17T07:13:52.310Z,5.68
2023-02-17T07:16:20.510Z,4.72
2023-02-17T07:18:48.960Z,13.02
2023-02-17T07:21:18.601Z,7.50
2023-02-17T07:23:46.986Z,7.60
2023-02-17T07:26:15.997Z,8.60
2023-02-17T07:28:44.621Z,11.52
2023-02-17T07:31:15.768Z,9.82
2023-02-17T07:33:45.492Z,6.05
2023-02-17T07:36:17.253Z,9.18
2023-02-17T07:38:46.870Z,7.80
2023-02-17T07:41:18.159Z,10.55
2023-02-17T07:43:47.389Z,8.45
2023-02-17T07:46:16.202Z,11.38
2023-02-17T07:48:44.380Z,13.13
2023-02-17T07:51:14.535Z,14.70
2023-02-17T07:53:43.482Z,4.45
2023-02-17T07:56:15.245Z,7.47
2023-02-17T07:58:44.794Z,11.05
2023-02-17T08:01:15.141Z,15.52
2023-02-17T08:03:43.929Z,10.43
2023-02-17T08:06:13.417Z,11.88
2023-02-17T08:08:59.792Z,15.85
2023-02-17T08:11:48.929Z,11.63
2023-02-17T08:14:18.566Z,20.10
2023-02-17T08:16:47.069Z,13.35
2023-02-17T08:19:15.308Z,16.33
2023-02-17T08:21:43.449Z,15.00
2023-02-17T08:24:12.610Z,11.05
2023-02-17T08:26:42.204Z,11.85
2023-02-17T08:29:10.459Z,11.95
2023-02-17T08:31:39.448Z,12.70
2023-02-17T08:34:09.756Z,17.00
2023-02-17T08:36:38.837Z,16.42
2023-02-17T08:39:08.811Z,8.20
2023-02-17T08:41:39.185Z,5.38
2023-02-17T08:44:12.314Z,15.38
2023-02-17T08:46:41.560Z,11.35
2023-02-17T08:49:10.320Z,9.75
2023-02-17T08:51:38.805Z,8.65
2023-02-17T08:54:08.070Z,12.55
2023-02-17T08:56:37.424Z,14.15
2023-02-17T08:59:06.045Z,8.13
2023-02-17T09:01:36.460Z,7.90
2023-02-17T09:04:07.068Z,11.88
2023-02-17T09:06:37.288Z,13.02
2023-02-17T09:09:07.419Z,12.80
2023-02-17T09:11:35.716Z,6.95
2023-02-17T09:14:04.010Z,5.50
2023-02-17T09:16:32.634Z,11.05
2023-02-17T09:19:02.286Z,14.57
2023-02-17T09:21:30.920Z,5.70
2023-02-17T09:23:59.071Z,8.68
2023-02-17T09:26:27.742Z,10.75
2023-02-17T09:28:57.581Z,10.80
2023-02-17T09:31:28.573Z,10.85
2023-02-17T09:33:57.140Z,8.52
2023-02-17T09:36:28.808Z,4.82
2023-02-17T09:38:57.595Z,11.07
2023-02-17T09:41:28.493Z,8.68
2023-02-17T09:43:57.089Z,6.43
2023-02-17T09:46:30.012Z,10.27
2023-02-17T09:49:02.390Z,4.45
2023-02-17T09:51:37.297Z,6.43
2023-02-17T09:54:12.477Z,8.32
2023-02-17T09:56:46.138Z,10.48
2023-02-17T09:59:20.044Z,6.07
2023-02-17T10:01:50.074Z,5.28
2023-02-17T10:04:22.812Z,5.43
2023-02-17T10:06:56.049Z,6.20
2023-02-17T10:09:29.902Z,4.95
2023-02-17T10:12:03.981Z,9.77
2023-02-17T10:14:37.882Z,6.07
2023-02-17T10:17:12.019Z,5.25
2023-02-17T10:19:50.329Z,4.65
2023-02-17T10:22:22.965Z,3.67
2023-02-17T10:24:51.138Z,7.00
2023-02-17T10:27:35.037Z,7.90
2023-02-17T10:30:25.309Z,3.50
2023-02-17T10:33:02.202Z,6.68
2023-02-17T10:35:51.083Z,6.05
2023-02-17T10:38:35.686Z,8.80
2023-02-17T10:41:07.097Z,5.97
2023-02-17T10:43:35.579Z,3.88
2023-02-17T10:46:07.224Z,6.40
2023-02-17T10:48:39.008Z,5.53
2023-02-17T10:51:08.201Z,6.30
2023-02-17T10:53:40.788Z,5.18
2023-02-17T10:56:14.786Z,6.72
2023-02-17T10:58:51.500Z,4.53
2023-02-17T11:01:20.374Z,6.13
2023-02-17T11:03:49.218Z,4.05
2023-02-17T11:06:20.127Z,3.75
2023-02-17T11:08:52.287Z,4.10
2023-02-17T11:11:22.485Z,5.90
2023-02-17T11:14:04.876Z,5.32
2023-02-17T11:16:37.863Z,3.53
2023-02-17T11:19:07.615Z,5.00
2023-02-17T11:21:36.554Z,6.38
2023-02-17T11:24:07.411Z,6.00
2023-02-17T11:26:37.249Z,6.32
2023-02-17T11:29:09.892Z,5.88
2023-02-17T11:31:38.343Z,5.07
2023-02-17T11:34:14.793Z,8.45
2023-02-17T11:36:46.355Z,8.65
2023-02-17T11:39:23.595Z,5.43
2023-02-17T11:41:51.751Z,6.72
2023-02-17T11:44:30.175Z,6.28
2023-02-17T11:47:10.875Z,8.30
2023-02-17T11:50:15.052Z,9.77
2023-02-17T11:52:58.645Z,6.30
2023-02-17T11:55:37.113Z,8.43
2023-02-17T11:58:21.276Z,7.15
2023-02-17T12:00:56.970Z,6.82
2023-02-17T12:03:43.120Z,8.88
2023-02-17T12:06:18.535Z,6.45
2023-02-17T12:09:01.086Z,6.57
2023-02-17T12:11:37.502Z,7.35
2023-02-17T12:14:21.434Z,5.55
2023-02-17T12:16:57.022Z,7.13
2023-02-17T12:19:39.408Z,4.85
2023-02-17T12:22:19.018Z,6.97
2023-02-17T12:25:12.998Z,5.68
2023-02-17T12:27:56.329Z,3.70
2023-02-17T12:30:33.304Z,7.18
2023-02-17T12:33:15.919Z,5.28
2023-02-17T12:35:51.413Z,5.40
2023-02-17T12:38:23.005Z,8.43
2023-02-17T12:40:54.900Z,6.70
2023-02-17T12:43:29.450Z,5.25
2023-02-17T12:46:01.429Z,6.80
2023-02-17T12:48:36.918Z,7.00
2023-02-17T12:51:10.723Z,10.73
2023-02-17T12:53:47.936Z,5.80
2023-02-17T12:56:34.753Z,5.30
2023-02-17T12:59:14.582Z,5.65
2023-02-17T13:01:50.882Z,8.65
2023-02-17T13:04:20.867Z,8.55
2023-02-17T13:06:54.947Z,6.32
2023-02-17T13:09:31.857Z,8.73
2023-02-17T13:12:39.094Z,10.00
2023-02-17T13:15:29.541Z,8.27
2023-02-17T13:18:03.141Z,11.82
2023-02-17T13:20:54.101Z,10.00
2023-02-17T13:23:31.919Z,8.25
2023-02-17T13:26:18.195Z,8.55
2023-02-17T13:28:53.297Z,9.23
2023-02-17T13:31:25.236Z,12.10
2023-02-17T13:33:56.101Z,10.35
2023-02-17T13:36:36.850Z,9.85
2023-02-17T13:39:08.815Z,9.35
2023-02-17T13:41:47.718Z,10.80
2023-02-17T13:44:28.836Z,12.23
2023-02-17T13:47:01.705Z,9.80
2023-02-17T13:49:33.167Z,7.65
2023-02-17T13:52:17.075Z,10.23
2023-02-17T13:54:54.008Z,7.35
2023-02-17T13:57:27.561Z,12.05
2023-02-17T14:00:11.057Z,9.90
2023-02-17T14:02:48.529Z,10.70
2023-02-17T14:05:22.704Z,6.10
2023-02-17T14:07:51.696Z,7.10
2023-02-17T14:10:23.638Z,10.57
2023-02-17T14:12:52.734Z,10.45
2023-02-17T14:15:23.641Z,6.38
2023-02-17T14:17:53.316Z,8.30
2023-02-17T14:20:29.770Z,10.07
2023-02-17T14:23:06.891Z,13.45
2023-02-17T14:25:37.256Z,8.93
2023-02-17T14:28:06.472Z,5.18
2023-02-17T14:30:36.778Z,4.65
2023-02-17T14:33:22.981Z,8.02
2023-02-17T14:35:54.335Z,7.30
2023-02-17T14:38:24.771Z,6.45
2023-02-17T14:40:53.530Z,8.70
2023-02-17T14:43:21.692Z,6.53
2023-02-17T14:45:50.729Z,6.85
2023-02-17T14:48:20.673Z,4.90
2023-02-17T14:50:49.304Z,6.82
2023-02-17T14:53:26.521Z,9.55
2023-02-17T14:56:00.363Z,5.97
2023-02-17T14:58:30.513Z,4.72
2023-02-17T15:00:59.106Z,6.80
2023-02-17T15:03:28.729Z,4.40
2023-02-17T15:05:57.099Z,5.25
2023-02-17T15:08:32.911Z,3.55
2023-02-17T15:11:02.454Z,4.82
2023-02-17T15:13:32.282Z,5.05
2023-02-17T15:16:00.827Z,5.43
2023-02-17T15:18:30.479Z,3.08
2023-02-17T15:20:58.650Z,6.32
2023-02-17T15:23:27.004Z,4.47
2023-02-17T15:25:56.654Z,3.75
2023-02-17T15:28:25.422Z,4.95
2023-02-17T15:30:56.387Z,4.93
2023-02-17T15:33:26.064Z,4.10
2023-02-17T15:35:56.420Z,4.25
2023-02-17T15:38:27.495Z,5.13
2023-02-17T15:40:58.735Z,3.08
2023-02-17T15:46:12.147Z,4.60
2023-02-17T15:48:40.361Z,5.47
2023-02-17T15:51:12.376Z,4.03
2023-02-17T15:53:40.589Z,4.35
2023-02-17T15:56:14.600Z,6.43
2023-02-17T15:58:44.776Z,6.38
2023-02-17T16:01:22.356Z,4.40
2023-02-17T16:03:50.775Z,3.85
2023-02-17T16:06:20.437Z,4.43
2023-02-17T16:08:48.927Z,5.57
2023-02-17T16:11:19.162Z,5.10
2023-02-17T16:13:48.418Z,2.85
2023-02-17T16:16:20.279Z,5.35
2023-02-17T16:18:48.959Z,4.82
2023-02-17T16:21:18.029Z,2.97
2023-02-17T16:23:47.916Z,7.72
2023-02-17T16:26:23.913Z,4.47
2023-02-17T16:28:52.430Z,3.15
2023-02-17T16:31:20.774Z,4.05
2023-02-17T16:33:49.348Z,5.72
2023-02-17T16:36:19.156Z,4.53
2023-02-17T16:38:51.363Z,5.57
2023-02-17T16:41:21.566Z,1.73
2023-02-17T16:43:49.752Z,6.85
2023-02-17T16:46:24.286Z,2.05
2023-02-17T16:48:52.468Z,5.43
2023-02-17T16:51:20.862Z,3.33
2023-02-17T16:53:50.610Z,4.53
2023-02-17T16:56:22.371Z,3.90
2023-02-17T16:58:50.885Z,1.17
2023-02-17T17:01:19.112Z,4.20
2023-02-17T17:03:47.773Z,7.40
2023-02-17T17:06:21.751Z,3.83
2023-02-17T17:08:51.701Z,4.85
2023-02-17T17:11:22.184Z,4.03
2023-02-17T17:13:51.296Z,5.32
2023-02-17T17:16:22.372Z,3.05
2023-02-17T17:18:50.822Z,3.85
2023-02-17T17:21:20.724Z,5.80
2023-02-17T17:23:51.159Z,6.00
2023-02-17T17:26:25.950Z,5.43
2023-02-17T17:28:55.120Z,4.43
2023-02-17T17:31:24.372Z,7.82
2023-02-17T17:33:53.715Z,4.03
2023-02-17T17:36:26.623Z,5.18
2023-02-17T17:38:57.943Z,4.80
2023-02-17T17:41:27.725Z,5.85
2023-02-17T17:43:56.013Z,6.82
2023-02-17T17:46:26.354Z,5.20
2023-02-17T17:48:55.038Z,6.50
2023-02-17T17:51:24.416Z,11.70
2023-02-17T17:53:53.125Z,6.43
2023-02-17T17:56:26.235Z,3.92
2023-02-17T17:58:54.733Z,5.25
2023-02-17T18:01:23.559Z,3.90
2023-02-17T18:03:52.316Z,8.93
2023-02-17T18:06:23.962Z,7.00
2023-02-17T18:08:54.723Z,5.47
2023-02-17T18:11:26.421Z,3.63
2023-02-17T18:13:59.435Z,4.68
2023-02-17T18:16:29.873Z,3.10
2023-02-17T18:18:59.431Z,7.32
2023-02-17T18:21:27.614Z,6.15
2023-02-17T18:23:55.957Z,8.35
2023-02-17T18:26:25.561Z,2.75
2023-02-17T18:28:53.719Z,7.60
2023-02-17T18:31:22.085Z,1.95
2023-02-17T18:33:50.581Z,3.83
2023-02-17T18:36:22.401Z,5.10
2023-02-17T18:38:51.054Z,5.03
2023-02-17T18:41:20.465Z,2.05
2023-02-17T18:43:50.305Z,2.53
2023-02-17T18:46:18.800Z,5.25
2023-02-17T18:48:47.793Z,3.30
2023-02-17T18:51:19.523Z,4.75
2023-02-17T18:53:49.030Z,2.83
2023-02-17T18:56:21.177Z,4.80
2023-02-17T18:58:51.838Z,6.35
2023-02-17T19:01:23.020Z,1.90
2023-02-17T19:03:51.965Z,8.07
2023-02-17T19:06:23.606Z,2.38
2023-02-17T19:08:52.657Z,7.20
2023-02-17T19:11:21.735Z,3.47
2023-02-17T19:13:52.348Z,6.28
2023-02-17T19:16:22.427Z,10.98
2023-02-17T19:18:50.777Z,1.73
2023-02-17T19:21:19.816Z,9.40
2023-02-17T19:23:48.154Z,6.50
2023-02-17T19:26:17.978Z,7.32
2023-02-17T19:28:46.925Z,8.73
2023-02-17T19:31:19.114Z,3.08
2023-02-17T19:33:48.127Z,3.10
2023-02-17T19:36:18.470Z,1.83
2023-02-17T19:38:47.047Z,1.77
2023-02-17T19:41:15.964Z,2.55
2023-02-17T19:43:44.581Z,5.43
2023-02-17T19:46:14.162Z,5.60
2023-02-17T19:48:43.807Z,2.08
2023-02-17T19:51:13.960Z,9.02
2023-02-17T19:53:43.451Z,6.13
2023-02-17T19:56:13.291Z,5.93
2023-02-17T19:58:42.425Z,4.55
2023-02-17T20:01:12.247Z,2.30
2023-02-17T20:03:40.539Z,1.95
2023-02-17T20:06:12.654Z,3.15
2023-02-17T20:08:40.945Z,2.80
2023-02-17T20:11:10.441Z,5.00
2023-02-17T20:13:45.624Z,4.13
2023-02-17T20:16:16.890Z,0.82
2023-02-17T20:18:46.652Z,3.53
2023-02-17T20:21:22.478Z,3.53
2023-02-17T20:23:51.359Z,5.25
2023-02-17T20:26:22.146Z,8.02
2023-02-17T20:28:50.752Z,5.65
2023-02-17T20:31:19.671Z,2.47
2023-02-17T20:33:48.235Z,3.42
2023-02-17T20:36:18.730Z,1.55
2023-02-17T20:38:47.109Z,3.70
2023-02-17T20:41:18.162Z,4.07
2023-02-17T20:43:46.696Z,3.13
2023-02-17T20:46:17.598Z,4.15
2023-02-17T20:48:45.805Z,7.63
2023-02-17T20:51:14.061Z,3.90
2023-02-17T20:53:43.608Z,4.68
2023-02-17T20:56:14.633Z,2.45
2023-02-17T20:58:43.081Z,2.70
2023-02-17T21:01:12.118Z,4.85
2023-02-17T21:03:40.403Z,3.05
2023-02-17T21:06:20.520Z,6.13
2023-02-17T21:08:52.273Z,2.53
2023-02-17T21:11:20.786Z,5.85
2023-02-17T21:13:49.228Z,9.48
2023-02-17T21:16:21.074Z,6.85
2023-02-17T21:18:49.294Z,5.25
2023-02-17T21:21:17.641Z,4.85
2023-02-17T21:23:47.932Z,4.50
2023-02-17T21:26:18.220Z,4.10
2023-02-17T21:28:47.358Z,5.80
2023-02-17T21:31:16.257Z,7.07
2023-02-17T21:33:44.824Z,2.58
2023-02-17T21:36:15.953Z,4.88
2023-02-17T21:38:44.201Z,3.38
2023-02-17T21:41:15.000Z,4.15
2023-02-17T21:44:02.346Z,6.30
2023-02-17T21:46:31.460Z,3.50
2023-02-17T21:49:01.805Z,5.78
2023-02-17T21:51:30.454Z,2.35
2023-02-17T21:53:59.735Z,10.15
2023-02-17T21:56:28.162Z,7.75
2023-02-17T21:58:57.817Z,3.25
2023-02-17T22:01:27.877Z,7.00
2023-02-17T22:03:57.702Z,5.60
2023-02-17T22:06:27.992Z,5.28
2023-02-17T22:08:57.095Z,9.35
2023-02-17T22:11:29.029Z,7.20
2023-02-17T22:14:01.058Z,4.10
2023-02-17T22:16:31.548Z,4.22
2023-02-17T22:18:59.881Z,2.35
2023-02-17T22:21:28.054Z,3.95
2023-02-17T22:23:56.524Z,6.47
2023-02-17T22:26:26.674Z,8.77
2023-02-17T22:28:55.175Z,2.70
2023-02-17T22:31:27.463Z,6.03
2023-02-17T22:33:58.026Z,5.63
2023-02-17T22:36:27.815Z,7.57
2023-02-17T22:38:56.372Z,6.45
2023-02-17T22:41:26.050Z,6.05
2023-02-17T22:43:55.363Z,6.13
2023-02-17T22:46:27.281Z,5.95
2023-02-17T22:48:57.194Z,4.82
2023-02-17T22:51:28.238Z,3.95
2023-02-17T22:53:56.778Z,4.90
2023-02-17T22:56:25.785Z,5.85
2023-02-17T22:58:56.505Z,5.43
2023-02-17T23:01:26.507Z,4.47
2023-02-17T23:03:55.166Z,2.92
2023-02-17T23:06:25.887Z,6.85
2023-02-17T23:08:54.697Z,3.50
2023-02-17T23:11:39.020Z,3.90
2023-02-17T23:14:07.514Z,4.13
2023-02-17T23:16:37.670Z,4.55
2023-02-17T23:19:08.545Z,9.57
2023-02-17T23:21:36.955Z,5.53
2023-02-17T23:24:05.771Z,4.80
2023-02-17T23:26:34.147Z,1.30
2023-02-17T23:29:02.338Z,6.15
2023-02-17T23:31:30.996Z,7.78
2023-02-17T23:34:00.723Z,8.77
2023-02-17T23:36:29.198Z,7.15
2023-02-17T23:38:59.687Z,2.00
2023-02-17T23:41:28.508Z,7.90
2023-02-17T23:43:56.981Z,4.53
2023-02-17T23:46:25.336Z,6.57
2023-02-17T23:48:53.877Z,3.22
2023-02-17T23:51:23.737Z,4.85
2023-02-17T23:53:52.111Z,1.27
2023-02-17T23:56:23.077Z,3.42
2023-02-17T23:58:51.228Z,6.35
